CST,Max TemperatureF,Mean TemperatureF,Min TemperatureF,Max Dew PointF,MeanDew PointF,Min DewpointF,Max Humidity, Mean Humidity, Min Humidity, Max Sea Level PressureIn, Mean Sea Level PressureIn, Min Sea Level PressureIn, Max VisibilityMiles, Mean VisibilityMiles, Min VisibilityMiles, Max Wind SpeedMPH, Mean Wind SpeedMPH, Max Gust SpeedMPH,PrecipitationIn, CloudCover, Events, WindDirDegrees
2012-11-1,36,33,29,34,28,23,92,82,72,30.17,30.04,29.94,10,9,2,17,11,23,0.04,8,Snow,321
2012-11-2,30,28,25,23,21,19,84,80,75,30.28,30.23,30.16,10,10,10,12,5,14,0.00,7,,47
2012-11-3,38,27,16,27,24,17,96,80,64,30.32,30.29,30.24,10,10,10,7,2,9,0.00,5,,86
2012-11-4,33,25,16,29,25,12,100,89,78,30.32,30.29,30.22,10,6,0,8,3,10,T,7,Fog-Snow,106
2012-11-5,37,26,15,33,25,14,92,78,64,30.32,30.12,29.80,10,10,6,10,4,18,0.00,7,,156
2012-11-6,38,36,33,36,34,32,100,96,92,29.99,29.77,29.63,10,6,1,10,6,15,0.20,8,Rain-Snow,281
2012-11-7,40,37,33,36,34,32,100,90,79,30.09,30.02,29.95,10,7,1,12,5,14,0.02,8,Rain,262
2012-11-8,42,37,32,38,33,28,92,84,76,30.19,29.98,29.83,10,10,3,16,9,22,T,7,Rain-Snow,317
2012-11-9,32,30,27,28,23,19,85,77,69,30.28,30.22,30.15,10,10,10,17,10,23,T,8,,40
2012-11-10,37,32,27,36,28,19,96,83,69,30.16,29.81,29.45,10,5,2,23,13,36,0.21,8,Rain-Snow,85
2012-11-11,41,31,21,39,27,16,100,87,74,29.76,29.59,29.38,10,8,1,20,10,26,0.08,8,Rain-Snow,235
2012-11-12,26,22,17,25,18,13,96,87,77,30.19,29.89,29.70,10,5,2,16,9,22,0.06,8,Snow,263
2012-11-13,31,25,18,23,20,16,100,85,69,30.29,30.25,30.16,10,10,10,13,5,17,0.00,6,,214
2012-11-14,40,27,13,29,22,10,96,80,64,30.29,30.18,30.04,10,10,6,10,3,14,0.00,3,,155
2012-11-15,37,25,12,30,19,9,92,70,47,30.52,30.28,30.01,10,10,10,18,8,24,0.00,3,,282
2012-11-16,39,25,11,20,13,8,92,62,32,30.53,30.40,30.25,10,10,10,13,6,22,0.00,1,,148
2012-11-17,46,38,30,36,29,20,82,69,56,30.22,30.17,30.14,10,10,10,12,5,22,T,3,Rain,162
2012-11-18,54,43,31,35,32,28,85,65,45,30.13,30.07,30.00,10,10,10,13,6,18,0.00,1,,145
2012-11-19,54,40,26,37,32,27,92,76,59,30.13,30.04,29.98,10,10,6,13,6,16,0.01,3,Rain,238
2012-11-20,41,35,28,30,28,26,100,82,64,30.20,30.10,29.94,10,6,0,10,4,17,0.00,5,Fog,129
2012-11-21,50,40,30,34,30,25,85,69,52,29.94,29.82,29.60,10,10,10,8,3,14,0.00,0,,130
2012-11-22,37,33,29,34,28,16,100,93,85,29.99,29.73,29.51,10,5,1,17,10,23,0.02,6,Rain-Snow,310
2012-11-23,20,9,-2,14,10,-1,95,83,70,30.41,30.29,30.03,10,6,2,26,11,36,0.01,6,Snow,312
2012-11-24,20,7,-7,18,9,-10,95,84,73,30.38,29.99,29.75,10,6,0,12,4,15,0.10,6,Fog-Snow,158
2012-11-25,21,14,7,19,12,3,100,85,70,30.22,29.91,29.78,10,6,1,23,9,30,0.04,8,Snow,283
2012-11-26,16,8,0,10,2,-4,87,77,66,30.41,30.30,30.16,10,8,2,10,7,14,T,7,Snow,248
2012-11-27,22,14,5,19,10,-1,92,77,61,30.29,30.13,30.01,10,9,2,16,9,20,0.01,7,Snow,275
2012-11-28,25,14,3,20,9,-1,88,80,71,30.32,30.18,30.00,10,9,2,16,6,20,T,7,Snow,252
2012-11-29,15,13,10,9,6,3,84,76,67,30.37,30.29,30.14,10,9,1,15,8,20,0.01,7,Snow,58
2012-11-30,30,22,14,27,17,9,92,84,75,30.35,30.21,30.02,10,8,2,15,8,21,0.04,8,Snow,110